sensor_id;sensor_type;location;lat;lon;timestamp;P1;durP1;ratioP1;P2;durP2;ratioP2
16579;SDS011;8402;51.466;6.806;2024-03-23T00:54:06;11.67;;;2.73;;
16579;SDS011;8402;51.466;6.806;2024-03-23T00:56:32;7.90;;;2.50;;
16579;SDS011;8402;51.466;6.806;2024-03-23T00:58:58;7.27;;;2.10;;
16579;SDS011;8402;51.466;6.806;2024-03-23T01:01:24;16.10;;;2.60;;
16579;SDS011;8402;51.466;6.806;2024-03-23T01:03:50;12.63;;;1.97;;
16579;SDS011;8402;51.466;6.806;2024-03-23T01:06:19;9.27;;;1.87;;
16579;SDS011;8402;51.466;6.806;2024-03-23T01:08:45;7.60;;;1.93;;
16579;SDS011;8402;51.466;6.806;2024-03-23T01:11:11;6.33;;;1.77;;
16579;SDS011;8402;51.466;6.806;2024-03-23T01:13:37;12.30;;;2.03;;
16579;SDS011;8402;51.466;6.806;2024-03-23T01:16:03;13.97;;;1.73;;
16579;SDS011;8402;51.466;6.806;2024-03-23T01:18:30;9.63;;;1.77;;
16579;SDS011;8402;51.466;6.806;2024-03-23T01:20:56;9.83;;;1.87;;
16579;SDS011;8402;51.466;6.806;2024-03-23T01:23:25;11.93;;;1.77;;
16579;SDS011;8402;51.466;6.806;2024-03-23T01:25:51;8.90;;;1.63;;
16579;SDS011;8402;51.466;6.806;2024-03-23T01:28:18;8.20;;;1.73;;
16579;SDS011;8402;51.466;6.806;2024-03-23T01:30:44;7.53;;;1.30;;
16579;SDS011;8402;51.466;6.806;2024-03-23T01:33:11;6.17;;;1.60;;
16579;SDS011;8402;51.466;6.806;2024-03-23T01:35:37;6.57;;;1.60;;
16579;SDS011;8402;51.466;6.806;2024-03-23T01:38:03;4.70;;;1.43;;
16579;SDS011;8402;51.466;6.806;2024-03-23T01:40:32;4.37;;;1.40;;
16579;SDS011;8402;51.466;6.806;2024-03-23T01:42:59;5.83;;;1.20;;
16579;SDS011;8402;51.466;6.806;2024-03-23T01:45:29;5.10;;;1.37;;
16579;SDS011;8402;51.466;6.806;2024-03-23T01:47:55;4.43;;;1.30;;
16579;SDS011;8402;51.466;6.806;2024-03-23T01:50:22;6.37;;;1.60;;
16579;SDS011;8402;51.466;6.806;2024-03-23T01:52:49;4.00;;;1.53;;
16579;SDS011;8402;51.466;6.806;2024-03-23T01:55:16;7.93;;;1.80;;
16579;SDS011;8402;51.466;6.806;2024-03-23T01:57:45;5.30;;;2.00;;
16579;SDS011;8402;51.466;6.806;2024-03-23T02:00:11;4.53;;;1.40;;
16579;SDS011;8402;51.466;6.806;2024-03-23T02:02:41;6.97;;;1.47;;
16579;SDS011;8402;51.466;6.806;2024-03-23T02:05:08;4.97;;;1.27;;
16579;SDS011;8402;51.466;6.806;2024-03-23T02:07:34;17.00;;;1.67;;
16579;SDS011;8402;51.466;6.806;2024-03-23T02:10:00;8.10;;;1.73;;
16579;SDS011;8402;51.466;6.806;2024-03-23T02:12:27;8.93;;;1.47;;
16579;SDS011;8402;51.466;6.806;2024-03-23T02:14:56;6.73;;;1.53;;
16579;SDS011;8402;51.466;6.806;2024-03-23T02:17:22;9.73;;;1.70;;
16579;SDS011;8402;51.466;6.806;2024-03-23T02:19:48;9.20;;;1.80;;
16579;SDS011;8402;51.466;6.806;2024-03-23T02:22:14;8.73;;;1.70;;
16579;SDS011;8402;51.466;6.806;2024-03-23T02:24:43;6.53;;;1.50;;
16579;SDS011;8402;51.466;6.806;2024-03-23T02:27:09;9.60;;;1.60;;
16579;SDS011;8402;51.466;6.806;2024-03-23T02:29:36;5.63;;;1.60;;
16579;SDS011;8402;51.466;6.806;2024-03-23T02:32:02;9.90;;;1.90;;
16579;SDS011;8402;51.466;6.806;2024-03-23T02:34:29;8.83;;;1.90;;
16579;SDS011;8402;51.466;6.806;2024-03-23T02:36:55;5.63;;;1.60;;
16579;SDS011;8402;51.466;6.806;2024-03-23T02:39:22;8.07;;;2.00;;
16579;SDS011;8402;51.466;6.806;2024-03-23T02:41:53;9.40;;;2.10;;
16579;SDS011;8402;51.466;6.806;2024-03-23T02:44:19;9.73;;;2.50;;
16579;SDS011;8402;51.466;6.806;2024-03-23T02:46:45;12.47;;;2.07;;
16579;SDS011;8402;51.466;6.806;2024-03-23T02:49:11;6.43;;;2.30;;
16579;SDS011;8402;51.466;6.806;2024-03-23T02:51:38;3.87;;;1.63;;
16579;SDS011;8402;51.466;6.806;2024-03-23T02:54:07;5.83;;;2.03;;
16579;SDS011;8402;51.466;6.806;2024-03-23T02:56:33;8.43;;;2.13;;
16579;SDS011;8402;51.466;6.806;2024-03-23T02:59:02;9.97;;;2.23;;
16579;SDS011;8402;51.466;6.806;2024-03-23T03:01:28;10.03;;;2.20;;
16579;SDS011;8402;51.466;6.806;2024-03-23T03:03:54;110.23;;;6.60;;
16579;SDS011;8402;51.466;6.806;2024-03-23T03:06:23;7.40;;;2.37;;
16579;SDS011;8402;51.466;6.806;2024-03-23T03:08:50;6.80;;;2.63;;
16579;SDS011;8402;51.466;6.806;2024-03-23T03:11:16;10.13;;;2.80;;
16579;SDS011;8402;51.466;6.806;2024-03-23T03:13:42;12.13;;;2.73;;
16579;SDS011;8402;51.466;6.806;2024-03-23T03:16:11;8.07;;;2.17;;
16579;SDS011;8402;51.466;6.806;2024-03-23T03:18:37;7.70;;;2.17;;
16579;SDS011;8402;51.466;6.806;2024-03-23T03:21:04;5.83;;;1.67;;
16579;SDS011;8402;51.466;6.806;2024-03-23T03:23:30;7.37;;;1.90;;
16579;SDS011;8402;51.466;6.806;2024-03-23T03:25:56;7.50;;;2.00;;
16579;SDS011;8402;51.466;6.806;2024-03-23T03:28:22;6.07;;;1.83;;
16579;SDS011;8402;51.466;6.806;2024-03-23T03:30:49;8.37;;;1.87;;
16579;SDS011;8402;51.466;6.806;2024-03-23T03:33:17;7.13;;;1.80;;
16579;SDS011;8402;51.466;6.806;2024-03-23T03:35:43;8.23;;;2.00;;
16579;SDS011;8402;51.466;6.806;2024-03-23T03:38:09;6.00;;;1.60;;
16579;SDS011;8402;51.466;6.806;2024-03-23T03:40:35;8.23;;;1.73;;
16579;SDS011;8402;51.466;6.806;2024-03-23T03:43:01;6.73;;;2.00;;
16579;SDS011;8402;51.466;6.806;2024-03-23T03:45:28;9.07;;;1.70;;
16579;SDS011;8402;51.466;6.806;2024-03-23T03:47:54;7.13;;;1.80;;
16579;SDS011;8402;51.466;6.806;2024-03-23T03:52:52;10.47;;;2.00;;
16579;SDS011;8402;51.466;6.806;2024-03-23T03:55:18;5.17;;;1.90;;
16579;SDS011;8402;51.466;6.806;2024-03-23T03:57:44;12.40;;;2.50;;
16579;SDS011;8402;51.466;6.806;2024-03-23T04:00:10;6.93;;;2.00;;
16579;SDS011;8402;51.466;6.806;2024-03-23T04:02:37;8.30;;;1.80;;
16579;SDS011;8402;51.466;6.806;2024-03-23T04:05:04;4.70;;;1.70;;
16579;SDS011;8402;51.466;6.806;2024-03-23T04:07:33;9.03;;;2.03;;
16579;SDS011;8402;51.466;6.806;2024-03-23T04:09:59;8.57;;;1.93;;
16579;SDS011;8402;51.466;6.806;2024-03-23T04:12:25;9.47;;;2.03;;
16579;SDS011;8402;51.466;6.806;2024-03-23T04:14:51;8.43;;;2.00;;
16579;SDS011;8402;51.466;6.806;2024-03-23T04:17:17;12.20;;;2.17;;
16579;SDS011;8402;51.466;6.806;2024-03-23T04:19:44;7.00;;;1.87;;
16579;SDS011;8402;51.466;6.806;2024-03-23T04:22:10;8.73;;;1.80;;
16579;SDS011;8402;51.466;6.806;2024-03-23T04:24:39;10.50;;;1.80;;
16579;SDS011;8402;51.466;6.806;2024-03-23T04:27:05;8.13;;;1.93;;
16579;SDS011;8402;51.466;6.806;2024-03-23T04:29:31;6.73;;;1.87;;
16579;SDS011;8402;51.466;6.806;2024-03-23T04:31:57;9.20;;;1.80;;
16579;SDS011;8402;51.466;6.806;2024-03-23T04:34:23;7.50;;;2.10;;
16579;SDS011;8402;51.466;6.806;2024-03-23T04:36:49;5.10;;;1.80;;
16579;SDS011;8402;51.466;6.806;2024-03-23T04:39:15;9.23;;;1.90;;
16579;SDS011;8402;51.466;6.806;2024-03-23T04:41:44;7.47;;;2.13;;
16579;SDS011;8402;51.466;6.806;2024-03-23T04:44:10;7.13;;;2.20;;
16579;SDS011;8402;51.466;6.806;2024-03-23T04:46:36;5.50;;;2.13;;
16579;SDS011;8402;51.466;6.806;2024-03-23T04:49:02;6.70;;;2.10;;
16579;SDS011;8402;51.466;6.806;2024-03-23T04:51:28;11.97;;;2.60;;
16579;SDS011;8402;51.466;6.806;2024-03-23T04:54:01;10.97;;;2.60;;
16579;SDS011;8402;51.466;6.806;2024-03-23T04:56:27;8.13;;;2.57;;
16579;SDS011;8402;51.466;6.806;2024-03-23T04:58:55;11.07;;;2.70;;
16579;SDS011;8402;51.466;6.806;2024-03-23T05:01:22;10.90;;;2.60;;
16579;SDS011;8402;51.466;6.806;2024-03-23T05:03:48;12.20;;;2.67;;
16579;SDS011;8402;51.466;6.806;2024-03-23T05:06:14;13.43;;;2.63;;
16579;SDS011;8402;51.466;6.806;2024-03-23T05:08:40;14.20;;;2.40;;
16579;SDS011;8402;51.466;6.806;2024-03-23T05:11:06;9.73;;;3.17;;
16579;SDS011;8402;51.466;6.806;2024-03-23T05:13:32;22.73;;;3.00;;
16579;SDS011;8402;51.466;6.806;2024-03-23T05:16:01;15.60;;;3.00;;
16579;SDS011;8402;51.466;6.806;2024-03-23T05:18:27;11.07;;;2.43;;
16579;SDS011;8402;51.466;6.806;2024-03-23T05:20:55;10.97;;;2.83;;
16579;SDS011;8402;51.466;6.806;2024-03-23T05:23:21;11.53;;;3.13;;
16579;SDS011;8402;51.466;6.806;2024-03-23T05:25:47;9.43;;;3.37;;
16579;SDS011;8402;51.466;6.806;2024-03-23T05:28:13;9.93;;;2.50;;
16579;SDS011;8402;51.466;6.806;2024-03-23T05:30:39;14.80;;;3.33;;
16579;SDS011;8402;51.466;6.806;2024-03-23T05:33:08;11.17;;;3.27;;
16579;SDS011;8402;51.466;6.806;2024-03-23T05:35:34;7.80;;;2.73;;
16579;SDS011;8402;51.466;6.806;2024-03-23T05:38:00;9.47;;;2.67;;
16579;SDS011;8402;51.466;6.806;2024-03-23T05:40:26;10.87;;;3.03;;
16579;SDS011;8402;51.466;6.806;2024-03-23T05:42:52;10.83;;;2.70;;
16579;SDS011;8402;51.466;6.806;2024-03-23T05:45:19;11.43;;;3.20;;
16579;SDS011;8402;51.466;6.806;2024-03-23T05:47:45;14.90;;;3.30;;
16579;SDS011;8402;51.466;6.806;2024-03-23T05:50:14;10.10;;;3.40;;
16579;SDS011;8402;51.466;6.806;2024-03-23T05:52:40;14.20;;;3.87;;
16579;SDS011;8402;51.466;6.806;2024-03-23T05:55:06;8.07;;;2.77;;
16579;SDS011;8402;51.466;6.806;2024-03-23T05:57:33;9.17;;;2.57;;
16579;SDS011;8402;51.466;6.806;2024-03-23T05:59:59;9.87;;;3.00;;
16579;SDS011;8402;51.466;6.806;2024-03-23T06:02:25;10.17;;;2.83;;
16579;SDS011;8402;51.466;6.806;2024-03-23T06:04:51;10.30;;;3.30;;
16579;SDS011;8402;51.466;6.806;2024-03-23T06:07:20;10.93;;;3.90;;
16579;SDS011;8402;51.466;6.806;2024-03-23T06:09:46;14.13;;;3.57;;
16579;SDS011;8402;51.466;6.806;2024-03-23T06:12:12;12.50;;;3.70;;
16579;SDS011;8402;51.466;6.806;2024-03-23T06:14:38;16.43;;;3.77;;
16579;SDS011;8402;51.466;6.806;2024-03-23T06:17:05;11.23;;;3.73;;
16579;SDS011;8402;51.466;6.806;2024-03-23T06:19:31;9.53;;;3.30;;
16579;SDS011;8402;51.466;6.806;2024-03-23T06:21:57;8.83;;;3.80;;
16579;SDS011;8402;51.466;6.806;2024-03-23T06:24:26;10.03;;;3.37;;
16579;SDS011;8402;51.466;6.806;2024-03-23T06:26:52;11.23;;;3.50;;
16579;SDS011;8402;51.466;6.806;2024-03-23T06:29:18;13.20;;;3.97;;
16579;SDS011;8402;51.466;6.806;2024-03-23T06:31:44;10.07;;;3.60;;
16579;SDS011;8402;51.466;6.806;2024-03-23T06:34:17;16.30;;;3.73;;
16579;SDS011;8402;51.466;6.806;2024-03-23T06:36:43;15.53;;;4.10;;
16579;SDS011;8402;51.466;6.806;2024-03-23T06:39:09;10.57;;;3.63;;
16579;SDS011;8402;51.466;6.806;2024-03-23T06:41:38;14.13;;;4.30;;
16579;SDS011;8402;51.466;6.806;2024-03-23T06:44:04;13.23;;;4.43;;
16579;SDS011;8402;51.466;6.806;2024-03-23T06:46:30;11.23;;;3.97;;
16579;SDS011;8402;51.466;6.806;2024-03-23T06:48:56;16.17;;;4.23;;
16579;SDS011;8402;51.466;6.806;2024-03-23T06:51:22;15.90;;;4.50;;
16579;SDS011;8402;51.466;6.806;2024-03-23T06:53:49;14.63;;;4.43;;
16579;SDS011;8402;51.466;6.806;2024-03-23T06:56:15;14.37;;;4.80;;
16579;SDS011;8402;51.466;6.806;2024-03-23T06:58:44;10.70;;;4.50;;
16579;SDS011;8402;51.466;6.806;2024-03-23T07:01:10;11.80;;;4.97;;
16579;SDS011;8402;51.466;6.806;2024-03-23T07:03:36;11.90;;;5.37;;
16579;SDS011;8402;51.466;6.806;2024-03-23T07:06:02;13.60;;;4.27;;
16579;SDS011;8402;51.466;6.806;2024-03-23T07:08:29;9.90;;;3.80;;
16579;SDS011;8402;51.466;6.806;2024-03-23T07:10:55;16.93;;;5.47;;
16579;SDS011;8402;51.466;6.806;2024-03-23T07:13:21;13.57;;;5.50;;
16579;SDS011;8402;51.466;6.806;2024-03-23T07:15:53;13.40;;;5.23;;
16579;SDS011;8402;51.466;6.806;2024-03-23T07:18:20;15.13;;;4.83;;
16579;SDS011;8402;51.466;6.806;2024-03-23T07:20:51;15.80;;;4.53;;
16579;SDS011;8402;51.466;6.806;2024-03-23T07:23:18;11.07;;;4.17;;
16579;SDS011;8402;51.466;6.806;2024-03-23T07:25:44;14.30;;;4.27;;
16579;SDS011;8402;51.466;6.806;2024-03-23T07:28:10;15.57;;;5.17;;
16579;SDS011;8402;51.466;6.806;2024-03-23T07:30:36;17.13;;;5.07;;
16579;SDS011;8402;51.466;6.806;2024-03-23T07:33:05;13.37;;;4.87;;
16579;SDS011;8402;51.466;6.806;2024-03-23T07:35:31;15.07;;;5.50;;
16579;SDS011;8402;51.466;6.806;2024-03-23T07:37:57;12.53;;;5.23;;
16579;SDS011;8402;51.466;6.806;2024-03-23T07:40:23;12.23;;;4.33;;
16579;SDS011;8402;51.466;6.806;2024-03-23T07:42:49;18.40;;;4.17;;
16579;SDS011;8402;51.466;6.806;2024-03-23T07:45:16;12.37;;;4.00;;
16579;SDS011;8402;51.466;6.806;2024-03-23T07:47:42;12.57;;;3.90;;
16579;SDS011;8402;51.466;6.806;2024-03-23T07:50:11;17.07;;;4.40;;
16579;SDS011;8402;51.466;6.806;2024-03-23T07:52:37;14.20;;;4.33;;
16579;SDS011;8402;51.466;6.806;2024-03-23T07:55:03;14.27;;;4.87;;
16579;SDS011;8402;51.466;6.806;2024-03-23T07:57:30;14.00;;;3.87;;
16579;SDS011;8402;51.466;6.806;2024-03-23T07:59:56;12.40;;;3.93;;
16579;SDS011;8402;51.466;6.806;2024-03-23T08:02:22;14.03;;;3.90;;
16579;SDS011;8402;51.466;6.806;2024-03-23T08:04:48;10.77;;;3.00;;
16579;SDS011;8402;51.466;6.806;2024-03-23T08:07:17;13.23;;;3.47;;
16579;SDS011;8402;51.466;6.806;2024-03-23T08:09:43;11.77;;;3.67;;
16579;SDS011;8402;51.466;6.806;2024-03-23T08:12:09;12.90;;;4.17;;
16579;SDS011;8402;51.466;6.806;2024-03-23T08:14:35;9.70;;;3.33;;
16579;SDS011;8402;51.466;6.806;2024-03-23T08:17:01;12.77;;;3.50;;
16579;SDS011;8402;51.466;6.806;2024-03-23T08:19:28;12.80;;;4.07;;
16579;SDS011;8402;51.466;6.806;2024-03-23T08:21:54;11.20;;;3.40;;
16579;SDS011;8402;51.466;6.806;2024-03-23T08:24:22;7.10;;;2.90;;
16579;SDS011;8402;51.466;6.806;2024-03-23T08:26:48;12.50;;;3.50;;
16579;SDS011;8402;51.466;6.806;2024-03-23T08:29:15;10.50;;;3.40;;
16579;SDS011;8402;51.466;6.806;2024-03-23T08:31:41;10.40;;;3.10;;
16579;SDS011;8402;51.466;6.806;2024-03-23T08:34:07;11.87;;;3.07;;
16579;SDS011;8402;51.466;6.806;2024-03-23T08:36:33;10.87;;;3.23;;
16579;SDS011;8402;51.466;6.806;2024-03-23T08:38:59;13.23;;;3.33;;
16579;SDS011;8402;51.466;6.806;2024-03-23T08:41:28;9.60;;;3.67;;
16579;SDS011;8402;51.466;6.806;2024-03-23T08:43:54;13.23;;;2.90;;
16579;SDS011;8402;51.466;6.806;2024-03-23T08:46:20;8.43;;;3.00;;
16579;SDS011;8402;51.466;6.806;2024-03-23T08:48:46;10.33;;;3.07;;
16579;SDS011;8402;51.466;6.806;2024-03-23T08:51:13;8.30;;;2.93;;
16579;SDS011;8402;51.466;6.806;2024-03-23T08:53:40;8.43;;;2.10;;
16579;SDS011;8402;51.466;6.806;2024-03-23T08:56:06;3.77;;;2.07;;
16579;SDS011;8402;51.466;6.806;2024-03-23T08:58:36;2.80;;;1.43;;
16579;SDS011;8402;51.466;6.806;2024-03-23T09:01:03;5.67;;;1.90;;
16579;SDS011;8402;51.466;6.806;2024-03-23T09:03:31;5.83;;;1.90;;
16579;SDS011;8402;51.466;6.806;2024-03-23T09:05:57;7.67;;;1.93;;
16579;SDS011;8402;51.466;6.806;2024-03-23T09:08:25;5.23;;;1.77;;
16579;SDS011;8402;51.466;6.806;2024-03-23T09:10:51;7.70;;;1.90;;
16579;SDS011;8402;51.466;6.806;2024-03-23T09:13:18;8.37;;;2.10;;
16579;SDS011;8402;51.466;6.806;2024-03-23T09:15:50;8.70;;;2.77;;
16579;SDS011;8402;51.466;6.806;2024-03-23T09:18:20;5.57;;;1.90;;
16579;SDS011;8402;51.466;6.806;2024-03-23T09:20:46;13.80;;;2.77;;
16579;SDS011;8402;51.466;6.806;2024-03-23T09:23:12;10.60;;;3.50;;
16579;SDS011;8402;51.466;6.806;2024-03-23T09:25:38;7.90;;;2.30;;
16579;SDS011;8402;51.466;6.806;2024-03-23T09:28:05;8.43;;;3.97;;
16579;SDS011;8402;51.466;6.806;2024-03-23T09:30:32;9.03;;;2.87;;
16579;SDS011;8402;51.466;6.806;2024-03-23T09:33:02;5.50;;;2.97;;
16579;SDS011;8402;51.466;6.806;2024-03-23T09:35:28;9.30;;;3.40;;
16579;SDS011;8402;51.466;6.806;2024-03-23T09:37:54;10.43;;;3.40;;
16579;SDS011;8402;51.466;6.806;2024-03-23T09:40:20;10.67;;;3.30;;
16579;SDS011;8402;51.466;6.806;2024-03-23T09:42:49;5.47;;;1.73;;
16579;SDS011;8402;51.466;6.806;2024-03-23T09:45:16;5.17;;;2.90;;
16579;SDS011;8402;51.466;6.806;2024-03-23T09:47:45;6.90;;;2.60;;
16579;SDS011;8402;51.466;6.806;2024-03-23T09:50:15;10.07;;;3.10;;
16579;SDS011;8402;51.466;6.806;2024-03-23T09:52:41;6.77;;;2.33;;
16579;SDS011;8402;51.466;6.806;2024-03-23T09:55:07;8.13;;;2.23;;
16579;SDS011;8402;51.466;6.806;2024-03-23T09:57:34;9.60;;;2.33;;
16579;SDS011;8402;51.466;6.806;2024-03-23T10:00:00;11.57;;;2.63;;
16579;SDS011;8402;51.466;6.806;2024-03-23T10:02:26;11.80;;;2.30;;
16579;SDS011;8402;51.466;6.806;2024-03-23T10:04:53;8.03;;;2.10;;
16579;SDS011;8402;51.466;6.806;2024-03-23T10:07:22;4.70;;;1.83;;
16579;SDS011;8402;51.466;6.806;2024-03-23T10:09:48;4.63;;;1.63;;
16579;SDS011;8402;51.466;6.806;2024-03-23T10:12:16;8.83;;;1.87;;
16579;SDS011;8402;51.466;6.806;2024-03-23T10:14:43;8.83;;;2.00;;
16579;SDS011;8402;51.466;6.806;2024-03-23T10:17:13;6.20;;;2.03;;
16579;SDS011;8402;51.466;6.806;2024-03-23T10:19:41;4.47;;;1.47;;
16579;SDS011;8402;51.466;6.806;2024-03-23T10:22:08;5.13;;;1.30;;
16579;SDS011;8402;51.466;6.806;2024-03-23T10:24:37;6.30;;;1.63;;
16579;SDS011;8402;51.466;6.806;2024-03-23T10:27:04;5.87;;;1.50;;
16579;SDS011;8402;51.466;6.806;2024-03-23T10:29:30;9.20;;;1.70;;
16579;SDS011;8402;51.466;6.806;2024-03-23T10:32:07;8.40;;;1.67;;
16579;SDS011;8402;51.466;6.806;2024-03-23T10:34:34;11.13;;;2.30;;
16579;SDS011;8402;51.466;6.806;2024-03-23T10:37:01;10.97;;;2.43;;
16579;SDS011;8402;51.466;6.806;2024-03-23T10:39:30;4.17;;;1.87;;
16579;SDS011;8402;51.466;6.806;2024-03-23T10:42:02;3.07;;;1.10;;
16579;SDS011;8402;51.466;6.806;2024-03-23T10:44:29;2.70;;;1.00;;
16579;SDS011;8402;51.466;6.806;2024-03-23T10:46:56;3.27;;;1.00;;
16579;SDS011;8402;51.466;6.806;2024-03-23T10:49:25;4.87;;;1.20;;
16579;SDS011;8402;51.466;6.806;2024-03-23T10:51:51;5.43;;;1.17;;
16579;SDS011;8402;51.466;6.806;2024-03-23T10:54:18;2.53;;;0.60;;
16579;SDS011;8402;51.466;6.806;2024-03-23T10:56:45;1.13;;;0.70;;
16579;SDS011;8402;51.466;6.806;2024-03-23T10:59:16;2.37;;;0.70;;
16579;SDS011;8402;51.466;6.806;2024-03-23T11:01:53;4.43;;;0.90;;
16579;SDS011;8402;51.466;6.806;2024-03-23T11:04:29;4.33;;;0.77;;
16579;SDS011;8402;51.466;6.806;2024-03-23T11:06:55;3.80;;;1.10;;
16579;SDS011;8402;51.466;6.806;2024-03-23T11:12:25;4.37;;;1.10;;
16579;SDS011;8402;51.466;6.806;2024-03-23T11:14:54;5.80;;;1.10;;
16579;SDS011;8402;51.466;6.806;2024-03-23T11:17:24;1.60;;;1.13;;
16579;SDS011;8402;51.466;6.806;2024-03-23T11:19:54;2.87;;;1.30;;
16579;SDS011;8402;51.466;6.806;2024-03-23T11:25:13;4.70;;;1.60;;
16579;SDS011;8402;51.466;6.806;2024-03-23T11:27:40;4.30;;;1.40;;
16579;SDS011;8402;51.466;6.806;2024-03-23T11:30:15;4.07;;;1.40;;
16579;SDS011;8402;51.466;6.806;2024-03-23T11:32:42;4.83;;;1.80;;
16579;SDS011;8402;51.466;6.806;2024-03-23T11:35:09;6.23;;;2.37;;
16579;SDS011;8402;51.466;6.806;2024-03-23T11:37:36;3.80;;;1.93;;
16579;SDS011;8402;51.466;6.806;2024-03-23T11:40:18;6.53;;;1.93;;
16579;SDS011;8402;51.466;6.806;2024-03-23T11:42:45;8.10;;;2.20;;
16579;SDS011;8402;51.466;6.806;2024-03-23T11:45:12;4.23;;;2.17;;
16579;SDS011;8402;51.466;6.806;2024-03-23T11:47:44;5.00;;;1.70;;
16579;SDS011;8402;51.466;6.806;2024-03-23T11:50:10;4.30;;;1.13;;
16579;SDS011;8402;51.466;6.806;2024-03-23T11:52:45;4.27;;;1.37;;
16579;SDS011;8402;51.466;6.806;2024-03-23T11:55:11;4.30;;;1.33;;
16579;SDS011;8402;51.466;6.806;2024-03-23T11:57:37;3.07;;;0.97;;
16579;SDS011;8402;51.466;6.806;2024-03-23T12:00:09;3.10;;;1.23;;
16579;SDS011;8402;51.466;6.806;2024-03-23T12:02:49;7.43;;;1.40;;
16579;SDS011;8402;51.466;6.806;2024-03-23T12:25:23;4.47;;;1.30;;
16579;SDS011;8402;51.466;6.806;2024-03-23T12:27:49;3.90;;;1.27;;
16579;SDS011;8402;51.466;6.806;2024-03-23T12:30:15;6.30;;;1.43;;
16579;SDS011;8402;51.466;6.806;2024-03-23T12:32:41;4.63;;;1.13;;
16579;SDS011;8402;51.466;6.806;2024-03-23T12:35:07;4.47;;;1.50;;
16579;SDS011;8402;51.466;6.806;2024-03-23T12:37:34;5.63;;;1.57;;
16579;SDS011;8402;51.466;6.806;2024-03-23T12:40:00;6.50;;;1.50;;
16579;SDS011;8402;51.466;6.806;2024-03-23T12:42:28;3.50;;;1.50;;
16579;SDS011;8402;51.466;6.806;2024-03-23T12:44:54;3.83;;;1.20;;
16579;SDS011;8402;51.466;6.806;2024-03-23T12:47:21;6.27;;;2.00;;
16579;SDS011;8402;51.466;6.806;2024-03-23T12:49:47;4.43;;;1.77;;
16579;SDS011;8402;51.466;6.806;2024-03-23T12:52:13;4.40;;;1.03;;
16579;SDS011;8402;51.466;6.806;2024-03-23T12:54:39;1.83;;;0.80;;
16579;SDS011;8402;51.466;6.806;2024-03-23T12:57:05;3.63;;;1.23;;
16579;SDS011;8402;51.466;6.806;2024-03-23T12:59:34;1.43;;;0.80;;
16579;SDS011;8402;51.466;6.806;2024-03-23T13:02:00;4.23;;;0.80;;
16579;SDS011;8402;51.466;6.806;2024-03-23T13:04:26;1.30;;;0.80;;
16579;SDS011;8402;51.466;6.806;2024-03-23T13:06:52;1.57;;;0.80;;
16579;SDS011;8402;51.466;6.806;2024-03-23T13:09:18;2.93;;;1.17;;
16579;SDS011;8402;51.466;6.806;2024-03-23T13:11:44;1.73;;;1.00;;
16579;SDS011;8402;51.466;6.806;2024-03-23T13:14:11;2.77;;;1.30;;
16579;SDS011;8402;51.466;6.806;2024-03-23T13:16:39;3.47;;;1.63;;
16579;SDS011;8402;51.466;6.806;2024-03-23T13:19:05;6.47;;;1.60;;
16579;SDS011;8402;51.466;6.806;2024-03-23T13:21:31;6.07;;;1.80;;
16579;SDS011;8402;51.466;6.806;2024-03-23T13:23:58;5.87;;;1.90;;
16579;SDS011;8402;51.466;6.806;2024-03-23T13:26:24;5.43;;;2.63;;
16579;SDS011;8402;51.466;6.806;2024-03-23T13:28:50;7.33;;;2.40;;
16579;SDS011;8402;51.466;6.806;2024-03-23T13:31:16;4.83;;;2.00;;
16579;SDS011;8402;51.466;6.806;2024-03-23T13:33:45;4.73;;;1.50;;
16579;SDS011;8402;51.466;6.806;2024-03-23T13:36:11;5.90;;;1.70;;
16579;SDS011;8402;51.466;6.806;2024-03-23T13:38:37;2.77;;;0.90;;
16579;SDS011;8402;51.466;6.806;2024-03-23T13:41:03;6.90;;;1.50;;
16579;SDS011;8402;51.466;6.806;2024-03-23T13:43:29;5.33;;;2.03;;
16579;SDS011;8402;51.466;6.806;2024-03-23T13:45:56;5.00;;;1.30;;
16579;SDS011;8402;51.466;6.806;2024-03-23T13:48:24;1.83;;;0.70;;
16579;SDS011;8402;51.466;6.806;2024-03-23T13:50:59;1.20;;;0.70;;
16579;SDS011;8402;51.466;6.806;2024-03-23T13:53:25;3.27;;;1.00;;
16579;SDS011;8402;51.466;6.806;2024-03-23T13:55:51;2.37;;;1.00;;
16579;SDS011;8402;51.466;6.806;2024-03-23T13:58:18;3.97;;;1.20;;
16579;SDS011;8402;51.466;6.806;2024-03-23T14:00:44;4.97;;;1.20;;
16579;SDS011;8402;51.466;6.806;2024-03-23T14:03:11;5.47;;;1.40;;
16579;SDS011;8402;51.466;6.806;2024-03-23T14:05:38;7.03;;;1.53;;
16579;SDS011;8402;51.466;6.806;2024-03-23T14:08:07;3.57;;;0.70;;
16579;SDS011;8402;51.466;6.806;2024-03-23T14:10:34;4.47;;;0.80;;
16579;SDS011;8402;51.466;6.806;2024-03-23T14:13:01;2.07;;;0.80;;
16579;SDS011;8402;51.466;6.806;2024-03-23T14:15:27;5.90;;;0.70;;
16579;SDS011;8402;51.466;6.806;2024-03-23T14:17:53;1.80;;;0.70;;
16579;SDS011;8402;51.466;6.806;2024-03-23T14:20:20;3.47;;;0.97;;
16579;SDS011;8402;51.466;6.806;2024-03-23T14:22:46;1.40;;;0.77;;
16579;SDS011;8402;51.466;6.806;2024-03-23T14:25:15;3.73;;;1.00;;
16579;SDS011;8402;51.466;6.806;2024-03-23T14:27:42;3.43;;;0.90;;
16579;SDS011;8402;51.466;6.806;2024-03-23T14:30:10;2.73;;;0.80;;
16579;SDS011;8402;51.466;6.806;2024-03-23T14:32:37;4.13;;;0.70;;
16579;SDS011;8402;51.466;6.806;2024-03-23T14:35:04;1.27;;;0.80;;
16579;SDS011;8402;51.466;6.806;2024-03-23T14:37:30;2.40;;;0.87;;
16579;SDS011;8402;51.466;6.806;2024-03-23T14:39:56;5.27;;;0.87;;
16579;SDS011;8402;51.466;6.806;2024-03-23T14:42:26;5.00;;;0.93;;
16579;SDS011;8402;51.466;6.806;2024-03-23T14:44:52;3.07;;;0.90;;
16579;SDS011;8402;51.466;6.806;2024-03-23T14:47:18;1.00;;;0.60;;
16579;SDS011;8402;51.466;6.806;2024-03-23T14:49:45;4.73;;;0.87;;
16579;SDS011;8402;51.466;6.806;2024-03-23T14:52:11;3.33;;;0.90;;
16579;SDS011;8402;51.466;6.806;2024-03-23T14:54:37;3.63;;;0.90;;
16579;SDS011;8402;51.466;6.806;2024-03-23T14:57:03;7.40;;;1.00;;
16579;SDS011;8402;51.466;6.806;2024-03-23T14:59:32;5.60;;;1.23;;
16579;SDS011;8402;51.466;6.806;2024-03-23T15:01:58;4.80;;;1.00;;
16579;SDS011;8402;51.466;6.806;2024-03-23T15:04:24;4.70;;;0.90;;
16579;SDS011;8402;51.466;6.806;2024-03-23T15:06:50;2.53;;;0.60;;
16579;SDS011;8402;51.466;6.806;2024-03-23T15:09:17;3.43;;;1.13;;
16579;SDS011;8402;51.466;6.806;2024-03-23T15:11:43;2.03;;;0.90;;
16579;SDS011;8402;51.466;6.806;2024-03-23T15:14:09;2.37;;;0.87;;
16579;SDS011;8402;51.466;6.806;2024-03-23T15:16:40;1.13;;;0.63;;
16579;SDS011;8402;51.466;6.806;2024-03-23T15:19:06;2.70;;;1.20;;
16579;SDS011;8402;51.466;6.806;2024-03-23T15:21:32;3.60;;;1.20;;
16579;SDS011;8402;51.466;6.806;2024-03-23T15:23:58;2.87;;;1.00;;
16579;SDS011;8402;51.466;6.806;2024-03-23T15:26:24;3.90;;;1.13;;
16579;SDS011;8402;51.466;6.806;2024-03-23T15:28:51;5.47;;;1.60;;
16579;SDS011;8402;51.466;6.806;2024-03-23T15:31:29;5.73;;;1.20;;
16579;SDS011;8402;51.466;6.806;2024-03-23T15:33:58;3.20;;;0.97;;
16579;SDS011;8402;51.466;6.806;2024-03-23T15:36:24;2.20;;;0.90;;
16579;SDS011;8402;51.466;6.806;2024-03-23T15:38:50;2.87;;;1.10;;
16579;SDS011;8402;51.466;6.806;2024-03-23T15:41:16;4.20;;;1.20;;
16579;SDS011;8402;51.466;6.806;2024-03-23T15:43:42;6.47;;;1.37;;
16579;SDS011;8402;51.466;6.806;2024-03-23T15:46:09;3.90;;;0.97;;
16579;SDS011;8402;51.466;6.806;2024-03-23T15:48:35;2.03;;;1.00;;
16579;SDS011;8402;51.466;6.806;2024-03-23T15:51:04;3.30;;;1.20;;
16579;SDS011;8402;51.466;6.806;2024-03-23T15:53:30;6.13;;;1.00;;
16579;SDS011;8402;51.466;6.806;2024-03-23T15:55:56;3.93;;;1.10;;
16579;SDS011;8402;51.466;6.806;2024-03-23T15:58:24;4.17;;;1.50;;
16579;SDS011;8402;51.466;6.806;2024-03-23T16:00:54;5.03;;;1.47;;
16579;SDS011;8402;51.466;6.806;2024-03-23T16:03:20;5.57;;;1.40;;
16579;SDS011;8402;51.466;6.806;2024-03-23T16:05:50;4.97;;;0.97;;
16579;SDS011;8402;51.466;6.806;2024-03-23T16:08:19;6.87;;;1.20;;
16579;SDS011;8402;51.466;6.806;2024-03-23T16:10:45;2.97;;;0.90;;
16579;SDS011;8402;51.466;6.806;2024-03-23T16:13:12;2.33;;;1.00;;
16579;SDS011;8402;51.466;6.806;2024-03-23T16:15:38;3.30;;;1.23;;
16579;SDS011;8402;51.466;6.806;2024-03-23T16:18:05;1.77;;;0.80;;